createdAt,value
2022-12-22T00:04:48.508Z,25.23
2022-12-22T00:15:32.537Z,24.70
2022-12-22T00:20:52.441Z,23.60
2022-12-22T00:26:14.474Z,25.80
2022-12-22T00:31:34.577Z,24.52
2022-12-22T00:36:55.716Z,25.40
2022-12-22T00:42:15.887Z,24.88
2022-12-22T00:47:42.332Z,25.83
2022-12-22T00:53:02.212Z,25.80
2022-12-22T00:58:25.049Z,25.42
2022-12-22T01:03:45.105Z,23.35
2022-12-22T01:09:05.547Z,23.52
2022-12-22T01:14:32.210Z,25.55
2022-12-22T01:19:52.186Z,23.88
2022-12-22T01:25:12.211Z,23.02
2022-12-22T01:30:32.534Z,23.73
2022-12-22T01:35:53.658Z,21.95
2022-12-22T01:41:15.039Z,22.13
2022-12-22T01:46:45.680Z,20.48
2022-12-22T01:52:05.543Z,21.00
2022-12-22T01:57:25.531Z,20.90
2022-12-22T02:02:46.563Z,19.88
2022-12-22T02:08:09.593Z,19.35
2022-12-22T02:13:39.313Z,21.27
2022-12-22T02:19:03.266Z,22.57
2022-12-22T02:24:33.057Z,22.25
2022-12-22T02:29:59.612Z,22.67
2022-12-22T02:35:19.661Z,22.45
2022-12-22T02:40:41.752Z,22.75
2022-12-22T02:46:12.456Z,22.63
2022-12-22T02:51:35.794Z,23.13
2022-12-22T02:56:56.368Z,24.40
2022-12-22T03:02:18.439Z,23.35
2022-12-22T03:07:38.515Z,22.42
2022-12-22T03:12:58.441Z,22.98
2022-12-22T03:18:25.868Z,22.83
2022-12-22T03:23:45.921Z,21.88
2022-12-22T03:28:47.374Z,22.27
2022-12-22T03:33:48.841Z,21.90
2022-12-22T03:38:50.247Z,20.50
2022-12-22T03:44:11.491Z,21.00
2022-12-22T03:49:13.152Z,19.92
2022-12-22T03:54:16.401Z,19.20
2022-12-22T03:59:17.980Z,16.15
2022-12-22T04:04:20.650Z,18.63
2022-12-22T04:09:22.752Z,19.45
2022-12-22T04:14:28.092Z,18.17
2022-12-22T04:19:34.998Z,19.20
2022-12-22T04:24:36.616Z,16.98
2022-12-22T04:29:38.052Z,18.90
2022-12-22T04:34:39.485Z,18.88
2022-12-22T04:39:40.872Z,17.45
2022-12-22T04:44:42.413Z,17.85
2022-12-22T04:49:43.904Z,18.50
2022-12-22T04:54:45.404Z,17.67
2022-12-22T04:59:46.944Z,18.20
2022-12-22T05:04:48.494Z,17.33
2022-12-22T05:09:50.149Z,17.15
2022-12-22T05:14:51.611Z,18.95
2022-12-22T05:19:53.073Z,18.70
2022-12-22T05:24:54.503Z,18.08
2022-12-22T05:29:56.176Z,18.23
2022-12-22T05:34:57.585Z,18.85
2022-12-22T05:39:59.055Z,17.08
2022-12-22T05:45:00.465Z,16.80
2022-12-22T05:50:01.937Z,15.13
2022-12-22T05:55:04.101Z,15.80
2022-12-22T06:00:11.106Z,14.15
2022-12-22T06:05:13.653Z,14.55
2022-12-22T06:10:15.577Z,13.40
2022-12-22T06:15:17.010Z,14.10
2022-12-22T06:20:18.454Z,12.88
2022-12-22T06:25:19.862Z,12.57
2022-12-22T06:30:24.522Z,11.50
2022-12-22T06:35:28.983Z,11.18
2022-12-22T06:40:30.518Z,12.60
2022-12-22T06:45:31.941Z,14.38
2022-12-22T06:50:34.527Z,14.43
2022-12-22T06:55:36.329Z,14.15
2022-12-22T07:00:37.807Z,15.50
2022-12-22T07:05:39.234Z,13.55
2022-12-22T07:10:58.827Z,12.57
2022-12-22T07:16:04.638Z,11.95
2022-12-22T07:21:07.574Z,10.48
2022-12-22T07:26:11.092Z,10.60
2022-12-22T07:31:13.576Z,10.45
2022-12-22T07:36:16.286Z,11.02
2022-12-22T07:41:37.349Z,10.65
2022-12-22T07:46:39.263Z,9.65
2022-12-22T07:51:41.595Z,11.77
2022-12-22T07:56:43.848Z,10.55
2022-12-22T08:01:47.191Z,9.73
2022-12-22T08:06:48.714Z,8.70
2022-12-22T08:11:50.343Z,9.25
2022-12-22T08:16:51.980Z,9.25
2022-12-22T08:21:53.621Z,9.43
2022-12-22T08:26:57.858Z,8.50
2022-12-22T08:32:00.287Z,9.48
2022-12-22T08:37:03.115Z,8.88
2022-12-22T08:42:05.537Z,9.18
2022-12-22T08:47:11.490Z,8.73
2022-12-22T08:52:18.749Z,8.13
2022-12-22T08:57:20.746Z,6.85
2022-12-22T09:02:22.425Z,7.50
2022-12-22T09:07:23.958Z,8.13
2022-12-22T09:12:25.442Z,7.90
2022-12-22T09:17:26.968Z,7.40
2022-12-22T09:22:28.995Z,8.55
2022-12-22T09:27:30.588Z,8.05
2022-12-22T09:32:32.606Z,7.85
2022-12-22T09:37:34.004Z,7.88
2022-12-22T09:42:35.731Z,8.48
2022-12-22T09:47:38.943Z,6.57
2022-12-22T09:52:46.537Z,6.15
2022-12-22T09:57:47.989Z,6.18
2022-12-22T10:02:52.118Z,5.75
2022-12-22T10:07:57.556Z,5.47
2022-12-22T10:13:00.354Z,5.45
2022-12-22T10:18:12.630Z,5.35
2022-12-22T10:23:18.401Z,5.65
2022-12-22T10:28:22.911Z,5.07
2022-12-22T10:33:24.263Z,4.28
2022-12-22T10:38:28.611Z,5.25
2022-12-22T10:43:32.339Z,4.30
2022-12-22T10:48:39.948Z,3.58
2022-12-22T10:53:44.257Z,4.03
2022-12-22T10:58:49.839Z,4.55
2022-12-22T11:03:52.481Z,4.32
2022-12-22T11:08:58.175Z,5.03
2022-12-22T11:14:24.114Z,4.50
2022-12-22T11:19:34.490Z,3.88
2022-12-22T11:24:44.908Z,4.13
2022-12-22T11:30:02.833Z,4.40
2022-12-22T11:35:17.934Z,4.00
2022-12-22T11:40:32.006Z,4.30
2022-12-22T11:45:43.331Z,3.80
2022-12-22T11:51:01.919Z,3.75
2022-12-22T11:56:17.443Z,3.33
2022-12-22T12:01:48.720Z,3.50
2022-12-22T12:07:03.530Z,3.58
2022-12-22T12:12:13.168Z,2.97
2022-12-22T12:17:21.466Z,3.40
2022-12-22T12:22:31.710Z,3.75
2022-12-22T12:27:35.905Z,3.10
2022-12-22T12:32:49.682Z,4.07
2022-12-22T12:37:56.044Z,3.42
2022-12-22T12:42:58.185Z,3.78
2022-12-22T12:48:19.530Z,3.60
2022-12-22T12:53:22.008Z,3.58
2022-12-22T12:58:35.600Z,4.70
2022-12-22T13:04:02.656Z,4.95
2022-12-22T13:09:39.725Z,4.60
2022-12-22T13:14:50.198Z,5.20
2022-12-22T13:19:51.830Z,4.22
2022-12-22T13:24:53.708Z,4.38
2022-12-22T13:29:55.317Z,4.88
2022-12-22T13:40:43.671Z,7.75
2022-12-22T13:45:50.098Z,8.65
2022-12-22T13:50:52.573Z,9.95
2022-12-22T13:55:54.581Z,11.25
2022-12-22T14:01:13.636Z,10.65
2022-12-22T14:06:19.627Z,11.20
2022-12-22T14:11:21.335Z,12.27
2022-12-22T14:16:22.842Z,11.05
2022-12-22T14:21:24.323Z,11.27
2022-12-22T14:26:27.932Z,11.70
2022-12-22T14:31:30.137Z,13.07
2022-12-22T14:36:40.771Z,12.77
2022-12-22T14:41:51.262Z,12.95
2022-12-22T14:47:15.872Z,19.90
2022-12-22T14:52:17.309Z,11.80
2022-12-22T14:57:28.882Z,10.77
2022-12-22T15:02:38.769Z,14.55
2022-12-22T15:13:11.005Z,24.92
2022-12-22T15:18:14.382Z,14.00
2022-12-22T15:23:18.890Z,13.75
2022-12-22T15:28:20.370Z,14.10
2022-12-22T15:33:22.067Z,12.80
2022-12-22T15:38:24.230Z,12.50
2022-12-22T15:48:47.101Z,18.10
2022-12-22T15:53:48.710Z,18.63
2022-12-22T15:58:50.176Z,21.15
2022-12-22T16:03:51.743Z,19.00
2022-12-22T16:08:53.468Z,19.35
2022-12-22T16:13:54.952Z,18.70
2022-12-22T16:18:56.384Z,18.67
2022-12-22T16:23:58.736Z,19.27
2022-12-22T16:29:00.307Z,17.77
2022-12-22T16:34:01.661Z,19.30
2022-12-22T16:39:03.131Z,19.30
2022-12-22T16:44:06.777Z,19.67
2022-12-22T16:49:09.185Z,17.88
2022-12-22T16:54:13.281Z,19.73
2022-12-22T16:59:14.888Z,19.00
2022-12-22T17:04:21.746Z,19.35
2022-12-22T17:09:26.073Z,18.88
2022-12-22T17:14:29.216Z,20.42
2022-12-22T17:19:30.698Z,19.95
2022-12-22T17:24:32.173Z,19.48
2022-12-22T17:29:35.215Z,20.90
2022-12-22T17:34:36.695Z,21.95
2022-12-22T17:39:38.849Z,22.15
2022-12-22T17:44:40.519Z,21.48
2022-12-22T17:49:42.629Z,23.20
2022-12-22T17:54:45.205Z,21.73
2022-12-22T17:59:47.294Z,22.45
2022-12-22T18:04:49.334Z,22.13
2022-12-22T18:09:53.772Z,23.08
2022-12-22T18:14:55.250Z,22.67
2022-12-22T18:19:57.220Z,24.27
2022-12-22T18:24:58.682Z,25.10
2022-12-22T18:30:00.161Z,22.88
2022-12-22T18:35:01.607Z,23.90
2022-12-22T18:40:03.400Z,22.25
2022-12-22T18:45:05.055Z,21.05
2022-12-22T18:50:07.360Z,23.55
2022-12-22T18:55:19.138Z,22.15
2022-12-22T19:00:21.876Z,24.40
2022-12-22T19:05:25.106Z,23.88
2022-12-22T19:10:35.576Z,23.17
2022-12-22T19:15:40.664Z,21.63
2022-12-22T19:20:42.099Z,21.08
2022-12-22T19:25:44.263Z,21.02
2022-12-22T19:30:45.752Z,20.10
2022-12-22T19:35:47.200Z,19.95
2022-12-22T19:40:50.462Z,21.95
2022-12-22T19:45:52.594Z,19.25
2022-12-22T19:50:54.544Z,20.73
2022-12-22T19:55:56.634Z,21.50
2022-12-22T20:00:58.704Z,21.40
2022-12-22T20:06:05.129Z,21.52
2022-12-22T20:11:12.247Z,20.42
2022-12-22T20:16:14.826Z,19.48
2022-12-22T20:21:20.481Z,19.35
2022-12-22T20:26:23.471Z,18.65
2022-12-22T20:31:24.966Z,18.23
2022-12-22T20:36:28.838Z,18.20
2022-12-22T20:41:30.423Z,16.10
2022-12-22T20:46:31.987Z,18.27
2022-12-22T20:51:34.063Z,17.42
2022-12-22T20:56:39.167Z,18.15
2022-12-22T21:01:40.965Z,16.60
2022-12-22T21:06:47.375Z,16.63
2022-12-22T21:11:49.113Z,14.48
2022-12-22T21:16:51.629Z,13.70
2022-12-22T21:21:54.084Z,13.82
2022-12-22T21:26:55.583Z,12.77
2022-12-22T21:31:57.515Z,14.30
2022-12-22T21:37:01.613Z,12.43
2022-12-22T21:42:05.786Z,14.25
2022-12-22T21:47:07.228Z,13.68
2022-12-22T21:52:08.614Z,14.82
2022-12-22T21:57:13.811Z,15.07
2022-12-22T22:02:16.424Z,13.68
2022-12-22T22:07:17.907Z,14.02
2022-12-22T22:12:36.155Z,14.00
2022-12-22T22:17:37.626Z,14.20
2022-12-22T22:22:39.171Z,13.95
2022-12-22T22:27:47.684Z,14.95
2022-12-22T22:32:49.661Z,15.70
2022-12-22T22:37:51.750Z,16.27
2022-12-22T22:42:53.259Z,15.98
2022-12-22T22:47:54.904Z,16.17
2022-12-22T22:52:56.337Z,15.05
2022-12-22T22:57:57.746Z,15.35
2022-12-22T23:03:00.472Z,15.13
2022-12-22T23:08:02.303Z,15.27
2022-12-22T23:13:03.748Z,16.05
2022-12-22T23:18:05.313Z,16.05
2022-12-22T23:23:06.944Z,16.23
2022-12-22T23:28:08.419Z,15.35
2022-12-22T23:33:09.989Z,14.40
2022-12-22T23:38:11.513Z,15.27
2022-12-22T23:43:13.183Z,13.63
2022-12-22T23:48:14.980Z,15.23
2022-12-22T23:53:16.814Z,14.38
2022-12-22T23:58:18.312Z,12.73
